Time,TemperatureF,DewpointF,PressureIn,WindDirection,WindDirectionDegrees,WindSpeedMPH,WindSpeedGustMPH,Humidity,HourlyPrecipIn,Conditions,Clouds,dailyrainin,SoftwareType,DateUTC
2013-05-02 00:03:00,76.0,68.3,29.89,ENE,77,0.0,2.0,77,0.00,,,0.00,WeatherTracker,2013-05-02 05:03:00,
2013-05-02 00:08:00,75.9,68.5,29.90,ESE,115,0.0,1.0,78,0.00,,,0.00,WeatherTracker,2013-05-02 05:08:00,
2013-05-02 00:13:00,75.9,68.9,29.90,SE,129,0.0,1.0,79,0.00,,,0.00,WeatherTracker,2013-05-02 05:13:00,
2013-05-02 00:18:00,75.8,68.8,29.90,SE,129,0.0,1.0,79,0.00,,,0.00,WeatherTracker,2013-05-02 05:18:00,
2013-05-02 00:23:00,75.7,68.7,29.89,SE,141,0.0,3.0,79,0.00,,,0.00,WeatherTracker,2013-05-02 05:23:00,
2013-05-02 00:28:00,75.6,69.0,29.89,SSE,153,0.0,3.0,80,0.00,,,0.00,WeatherTracker,2013-05-02 05:28:00,
2013-05-02 00:33:00,75.4,68.8,29.90,West,280,0.0,1.0,80,0.00,,,0.00,WeatherTracker,2013-05-02 05:33:00,
2013-05-02 00:38:00,75.2,69.0,29.91,West,280,0.0,1.0,81,0.00,,,0.00,WeatherTracker,2013-05-02 05:38:00,
2013-05-02 00:43:00,75.1,68.9,29.91,SE,138,0.0,1.0,81,0.00,,,0.00,WeatherTracker,2013-05-02 05:43:00,
2013-05-02 00:48:00,75.1,69.2,29.91,SE,139,0.0,1.0,82,0.00,,,0.00,WeatherTracker,2013-05-02 05:48:00,
2013-05-02 00:53:00,75.0,69.1,29.92,SE,138,0.0,1.0,82,0.00,,,0.00,WeatherTracker,2013-05-02 05:53:00,
2013-05-02 00:58:00,74.9,69.0,29.92,SE,138,0.0,0.0,82,0.00,,,0.00,WeatherTracker,2013-05-02 05:58:00,
2013-05-02 01:03:00,74.8,69.3,29.94,West,263,0.0,1.0,83,0.00,,,0.00,WeatherTracker,2013-05-02 06:03:00,
2013-05-02 01:08:00,74.6,65.4,29.96,WNW,285,4.0,8.0,73,0.00,,,0.00,WeatherTracker,2013-05-02 06:08:00,
2013-05-02 01:13:00,73.4,60.5,29.97,SW,228,6.0,8.0,64,0.00,,,0.00,WeatherTracker,2013-05-02 06:13:00,
2013-05-02 01:18:00,70.4,62.1,29.99,NW,313,3.0,13.0,75,0.00,,,0.00,WeatherTracker,2013-05-02 06:18:00,
2013-05-02 01:23:00,67.5,61.5,30.01,SW,215,4.0,13.0,81,0.03,,,0.03,WeatherTracker,2013-05-02 06:23:00,
2013-05-02 01:28:00,65.6,61.3,30.03,NW,306,3.0,10.0,86,0.07,,,0.07,WeatherTracker,2013-05-02 06:28:00,
2013-05-02 01:33:00,64.5,60.9,30.03,ENE,59,4.0,10.0,88,0.11,,,0.11,WeatherTracker,2013-05-02 06:33:00,
2013-05-02 01:39:00,63.8,60.5,30.03,WNW,302,8.0,9.0,89,0.13,,,0.13,WeatherTracker,2013-05-02 06:39:00,
2013-05-02 01:44:00,63.3,60.3,30.02,NNW,331,2.0,10.0,90,0.14,,,0.14,WeatherTracker,2013-05-02 06:44:00,
2013-05-02 01:49:00,63.0,60.3,30.03,NNE,25,4.0,10.0,91,0.16,,,0.16,WeatherTracker,2013-05-02 06:49:00,
2013-05-02 01:54:00,62.7,60.0,30.04,SW,217,2.0,10.0,91,0.17,,,0.17,WeatherTracker,2013-05-02 06:54:00,
2013-05-02 01:59:00,62.6,59.9,30.04,NE,45,3.0,8.0,91,0.18,,,0.18,WeatherTracker,2013-05-02 06:59:00,
2013-05-02 02:04:00,62.6,59.9,30.04,WNW,284,1.0,8.0,91,0.19,,,0.19,WeatherTracker,2013-05-02 07:04:00,
2013-05-02 02:09:00,62.6,59.9,30.04,NNE,23,0.0,6.0,91,0.20,,,0.20,WeatherTracker,2013-05-02 07:09:00,
2013-05-02 02:14:00,62.5,59.8,30.03,WNW,289,0.0,6.0,91,0.22,,,0.22,WeatherTracker,2013-05-02 07:14:00,
2013-05-02 02:19:00,62.5,59.8,30.03,NNW,329,1.0,5.0,91,0.22,,,0.22,WeatherTracker,2013-05-02 07:19:00,
2013-05-02 02:24:00,62.6,59.9,30.03,North,3,0.0,5.0,91,0.21,,,0.24,WeatherTracker,2013-05-02 07:24:00,
2013-05-02 02:29:00,62.6,59.9,30.02,SW,215,0.0,5.0,91,0.17,,,0.25,WeatherTracker,2013-05-02 07:29:00,
2013-05-02 02:34:00,62.5,60.1,30.02,West,278,0.0,2.0,92,0.15,,,0.26,WeatherTracker,2013-05-02 07:34:00,
2013-05-02 02:39:00,62.5,60.1,30.02,West,274,0.0,1.0,92,0.14,,,0.27,WeatherTracker,2013-05-02 07:39:00,
2013-05-02 02:44:00,62.5,60.1,30.02,NNE,12,0.0,1.0,92,0.14,,,0.28,WeatherTracker,2013-05-02 07:44:00,
2013-05-02 02:49:00,62.4,60.0,30.01,NNE,13,0.0,0.0,92,0.14,,,0.30,WeatherTracker,2013-05-02 07:49:00,
2013-05-02 02:54:00,62.4,60.3,30.00,NE,56,0.0,1.0,93,0.14,,,0.31,WeatherTracker,2013-05-02 07:54:00,
2013-05-02 02:59:00,62.6,60.8,30.01,NE,51,0.0,1.0,94,0.15,,,0.33,WeatherTracker,2013-05-02 07:59:00,
2013-05-02 03:04:00,62.5,60.4,30.00,ESE,112,2.0,3.0,93,0.16,,,0.35,WeatherTracker,2013-05-02 08:04:00,
2013-05-02 03:09:00,62.5,60.4,30.00,ENE,72,0.0,3.0,93,0.16,,,0.36,WeatherTracker,2013-05-02 08:09:00,
2013-05-02 03:14:00,62.4,60.3,30.00,East,79,1.0,3.0,93,0.16,,,0.38,WeatherTracker,2013-05-02 08:14:00,
2013-05-02 03:19:00,62.3,60.2,29.99,NE,40,1.0,3.0,93,0.18,,,0.40,WeatherTracker,2013-05-02 08:19:00,
2013-05-02 03:24:00,62.3,60.2,29.99,NE,49,1.0,3.0,93,0.18,,,0.42,WeatherTracker,2013-05-02 08:24:00,
2013-05-02 03:29:00,62.2,60.1,29.99,ESE,115,1.0,3.0,93,0.19,,,0.44,WeatherTracker,2013-05-02 08:29:00,
2013-05-02 03:34:00,62.0,60.0,29.97,SSE,163,1.0,5.0,93,0.20,,,0.46,WeatherTracker,2013-05-02 08:34:00,
2013-05-02 03:39:00,62.0,60.0,29.95,ENE,66,3.0,5.0,93,0.21,,,0.48,WeatherTracker,2013-05-02 08:39:00,
2013-05-02 03:45:00,62.0,60.0,29.94,SE,124,2.0,7.0,93,0.20,,,0.49,WeatherTracker,2013-05-02 08:45:00,
2013-05-02 03:50:00,62.2,60.1,29.94,ENE,75,3.0,7.0,93,0.21,,,0.51,WeatherTracker,2013-05-02 08:50:00,
2013-05-02 03:55:00,62.2,60.1,29.94,ENE,60,1.0,5.0,93,0.20,,,0.52,WeatherTracker,2013-05-02 08:55:00,
2013-05-02 04:00:00,62.4,60.0,29.93,SE,145,2.0,6.0,92,0.20,,,0.53,WeatherTracker,2013-05-02 09:00:00,
2013-05-02 04:05:00,62.5,59.8,29.91,ESE,103,6.0,8.0,91,0.20,,,0.55,WeatherTracker,2013-05-02 09:05:00,
2013-05-02 04:10:00,62.8,60.1,29.88,ESE,120,7.0,10.0,91,0.20,,,0.56,WeatherTracker,2013-05-02 09:10:00,
2013-05-02 04:15:00,63.8,59.9,29.85,East,86,12.0,12.0,87,0.19,,,0.57,WeatherTracker,2013-05-02 09:15:00,
2013-05-02 04:20:00,64.5,59.6,29.85,ENE,75,13.0,14.0,84,0.17,,,0.57,WeatherTracker,2013-05-02 09:20:00,
2013-05-02 04:25:00,64.9,59.9,29.86,NE,49,7.0,15.0,84,0.15,,,0.57,WeatherTracker,2013-05-02 09:25:00,
2013-05-02 04:30:00,64.6,59.7,29.87,East,87,5.0,15.0,84,0.14,,,0.58,WeatherTracker,2013-05-02 09:30:00,
2013-05-02 04:35:00,64.3,59.7,29.86,NE,51,2.0,11.0,85,0.12,,,0.58,WeatherTracker,2013-05-02 09:35:00,
2013-05-02 04:40:00,64.4,59.8,29.83,East,83,6.0,10.0,85,0.11,,,0.59,WeatherTracker,2013-05-02 09:40:00,
2013-05-02 04:45:00,64.6,59.7,29.79,SE,146,1.0,10.0,84,0.09,,,0.59,WeatherTracker,2013-05-02 09:45:00,
2013-05-02 04:50:00,64.6,59.7,29.80,ENE,73,4.0,10.0,84,0.08,,,0.59,WeatherTracker,2013-05-02 09:50:00,
2013-05-02 04:55:00,64.5,59.6,29.81,NE,51,1.0,9.0,84,0.06,,,0.59,WeatherTracker,2013-05-02 09:55:00,
2013-05-02 05:00:00,64.1,59.8,29.82,NNW,335,0.0,7.0,86,0.05,,,0.59,WeatherTracker,2013-05-02 10:00:00,
2013-05-02 05:05:00,63.4,59.8,29.84,NW,307,0.0,5.0,88,0.04,,,0.59,WeatherTracker,2013-05-02 10:05:00,
2013-05-02 05:10:00,62.8,59.8,29.85,WSW,255,1.0,2.0,90,0.03,,,0.59,WeatherTracker,2013-05-02 10:10:00,
2013-05-02 05:15:00,62.8,59.5,29.85,WNW,283,0.0,3.0,89,0.02,,,0.59,WeatherTracker,2013-05-02 10:15:00,
2013-05-02 05:20:00,63.1,59.2,29.84,ESE,102,0.0,3.0,87,0.02,,,0.59,WeatherTracker,2013-05-02 10:20:00,
2013-05-02 05:25:00,63.4,59.8,29.84,East,101,0.0,3.0,88,0.02,,,0.59,WeatherTracker,2013-05-02 10:25:00,
2013-05-02 05:30:00,63.1,59.8,29.83,NW,315,0.0,1.0,89,0.01,,,0.59,WeatherTracker,2013-05-02 10:30:00,
2013-05-02 05:35:00,62.9,59.9,29.82,East,79,0.0,1.0,90,0.01,,,0.59,WeatherTracker,2013-05-02 10:35:00,
2013-05-02 05:41:00,62.9,59.9,29.81,ENE,75,0.0,1.0,90,0.00,,,0.59,WeatherTracker,2013-05-02 10:41:00,
2013-05-02 05:46:00,62.8,60.1,29.80,ENE,62,0.0,1.0,91,0.00,,,0.59,WeatherTracker,2013-05-02 10:46:00,
2013-05-02 05:51:00,62.9,60.2,29.80,ENE,63,1.0,2.0,91,0.00,,,0.59,WeatherTracker,2013-05-02 10:51:00,
2013-05-02 05:56:00,63.2,60.2,29.82,NNW,348,0.0,4.0,90,0.00,,,0.59,WeatherTracker,2013-05-02 10:56:00,
2013-05-02 06:01:00,63.0,60.0,29.86,ESE,103,1.0,5.0,90,0.00,,,0.59,WeatherTracker,2013-05-02 11:01:00,
2013-05-02 06:06:00,62.9,59.9,29.87,West,278,0.0,7.0,90,0.00,,,0.59,WeatherTracker,2013-05-02 11:06:00,
2013-05-02 06:11:00,62.9,59.9,29.87,North,358,1.0,7.0,90,0.00,,,0.59,WeatherTracker,2013-05-02 11:11:00,
2013-05-02 06:16:00,63.0,60.0,29.87,NW,322,3.0,8.0,90,0.00,,,0.59,WeatherTracker,2013-05-02 11:16:00,
2013-05-02 06:21:00,63.0,59.7,29.87,NE,53,1.0,11.0,89,0.00,,,0.59,WeatherTracker,2013-05-02 11:21:00,
2013-05-02 06:26:00,62.6,59.0,29.88,NNE,28,1.0,11.0,88,0.00,,,0.59,WeatherTracker,2013-05-02 11:26:00,
2013-05-02 06:31:00,62.0,58.4,29.89,SSW,195,3.0,11.0,88,0.00,,,0.59,WeatherTracker,2013-05-02 11:31:00,
2013-05-02 06:36:00,61.6,58.0,29.89,NW,307,13.0,13.0,88,0.00,,,0.59,WeatherTracker,2013-05-02 11:36:00,
2013-05-02 06:41:00,61.2,57.6,29.89,NNW,336,6.0,13.0,88,0.00,,,0.59,WeatherTracker,2013-05-02 11:41:00,
2013-05-02 06:46:00,60.9,57.3,29.90,NE,54,1.0,13.0,88,0.00,,,0.59,WeatherTracker,2013-05-02 11:46:00,
2013-05-02 06:51:00,60.6,57.0,29.90,SSW,200,3.0,9.0,88,0.00,,,0.59,WeatherTracker,2013-05-02 11:51:00,
2013-05-02 06:56:00,60.3,57.0,29.90,North,359,5.0,9.0,89,0.00,,,0.59,WeatherTracker,2013-05-02 11:56:00,
2013-05-02 07:01:00,60.1,56.8,29.90,NNW,329,1.0,9.0,89,0.00,,,0.59,WeatherTracker,2013-05-02 12:01:00,
2013-05-02 07:06:00,59.9,56.6,29.91,ESE,102,0.0,10.0,89,0.00,,,0.59,WeatherTracker,2013-05-02 12:06:00,
2013-05-02 07:11:00,59.7,56.5,29.91,SE,138,1.0,10.0,89,0.00,,,0.59,WeatherTracker,2013-05-02 12:11:00,
2013-05-02 07:16:00,59.5,55.9,29.92,NW,309,4.0,9.0,88,0.00,,,0.59,WeatherTracker,2013-05-02 12:16:00,
2013-05-02 07:22:00,59.3,55.7,29.93,WNW,295,1.0,9.0,88,0.00,,,0.59,WeatherTracker,2013-05-02 12:22:00,
2013-05-02 07:27:00,59.2,55.6,29.93,ESE,107,2.0,11.0,88,0.00,,,0.59,WeatherTracker,2013-05-02 12:27:00,
2013-05-02 07:32:00,59.0,55.4,29.93,NW,326,4.0,11.0,88,0.00,,,0.59,WeatherTracker,2013-05-02 12:32:00,
2013-05-02 07:37:00,58.9,55.4,29.94,East,82,2.0,11.0,88,0.00,,,0.59,WeatherTracker,2013-05-02 12:37:00,
2013-05-02 07:42:00,58.8,55.3,29.95,NNW,329,2.0,10.0,88,0.00,,,0.59,WeatherTracker,2013-05-02 12:42:00,
2013-05-02 07:47:00,58.7,55.2,29.95,NE,40,5.0,10.0,88,0.00,,,0.59,WeatherTracker,2013-05-02 12:47:00,
2013-05-02 07:52:00,58.6,54.4,29.95,NE,34,12.0,13.0,86,0.00,,,0.59,WeatherTracker,2013-05-02 12:52:00,
2013-05-02 07:57:00,58.5,54.3,29.96,NW,317,5.0,13.0,86,0.00,,,0.59,WeatherTracker,2013-05-02 12:57:00,
2013-05-02 08:02:00,58.5,54.3,29.96,NNW,330,0.0,12.0,86,0.00,,,0.59,WeatherTracker,2013-05-02 13:02:00,
2013-05-02 08:07:00,58.6,54.4,29.97,ENE,59,0.0,11.0,86,0.00,,,0.59,WeatherTracker,2013-05-02 13:07:00,
2013-05-02 08:12:00,58.8,54.6,29.97,NW,312,1.0,11.0,86,0.00,,,0.59,WeatherTracker,2013-05-02 13:12:00,
2013-05-02 08:17:00,58.8,54.3,29.98,North,349,4.0,10.0,85,0.00,,,0.59,WeatherTracker,2013-05-02 13:17:00,
2013-05-02 08:22:00,58.8,54.3,29.99,East,81,3.0,12.0,85,0.00,,,0.59,WeatherTracker,2013-05-02 13:22:00,
2013-05-02 08:27:00,58.6,53.8,29.99,WNW,297,1.0,12.0,84,0.00,,,0.59,WeatherTracker,2013-05-02 13:27:00,
2013-05-02 08:32:00,58.3,53.5,30.00,WNW,295,8.0,8.0,84,0.00,,,0.59,WeatherTracker,2013-05-02 13:32:00,
2013-05-02 08:37:00,58.0,53.2,30.01,NNE,13,1.0,11.0,84,0.00,,,0.59,WeatherTracker,2013-05-02 13:37:00,
2013-05-02 08:42:00,57.8,53.0,30.01,NNE,30,3.0,11.0,84,0.00,,,0.59,WeatherTracker,2013-05-02 13:42:00,
2013-05-02 08:47:00,57.7,52.9,30.01,NW,310,2.0,18.0,84,0.00,,,0.59,WeatherTracker,2013-05-02 13:47:00,
2013-05-02 08:52:00,57.7,53.2,30.02,ENE,58,0.0,18.0,85,0.00,,,0.59,WeatherTracker,2013-05-02 13:52:00,
2013-05-02 08:57:00,57.4,52.6,30.02,North,355,3.0,9.0,84,0.00,,,0.59,WeatherTracker,2013-05-02 13:57:00,
2013-05-02 09:02:00,57.1,52.0,30.03,NW,322,2.0,11.0,83,0.00,,,0.59,WeatherTracker,2013-05-02 14:02:00,
2013-05-02 09:07:00,56.8,51.7,30.04,North,10,1.0,12.0,83,0.00,,,0.59,WeatherTracker,2013-05-02 14:07:00,
2013-05-02 09:12:00,56.7,51.9,30.04,North,359,1.0,12.0,84,0.00,,,0.59,WeatherTracker,2013-05-02 14:12:00,
2013-05-02 09:18:00,56.6,51.5,30.05,WNW,301,0.0,7.0,83,0.00,,,0.59,WeatherTracker,2013-05-02 14:18:00,
2013-05-02 09:23:00,56.3,51.5,30.06,NW,314,5.0,8.0,84,0.00,,,0.59,WeatherTracker,2013-05-02 14:23:00,
2013-05-02 09:28:00,56.2,51.4,30.06,NW,306,6.0,9.0,84,0.00,,,0.59,WeatherTracker,2013-05-02 14:28:00,
2013-05-02 09:33:00,55.9,50.5,30.07,West,265,1.0,10.0,82,0.00,,,0.59,WeatherTracker,2013-05-02 14:33:00,
2013-05-02 09:38:00,55.5,50.4,30.07,NNW,347,2.0,10.0,83,0.00,,,0.59,WeatherTracker,2013-05-02 14:38:00,
2013-05-02 09:43:00,55.2,49.8,30.08,NNW,338,1.0,8.0,82,0.00,,,0.59,WeatherTracker,2013-05-02 14:43:00,
2013-05-02 09:48:00,55.0,49.9,30.09,NNW,340,0.0,9.0,83,0.00,,,0.59,WeatherTracker,2013-05-02 14:48:00,
2013-05-02 09:53:00,54.8,49.7,30.09,NNW,333,2.0,9.0,83,0.00,,,0.59,WeatherTracker,2013-05-02 14:53:00,
2013-05-02 09:58:00,54.5,49.1,30.11,ENE,77,1.0,14.0,82,0.00,,,0.59,WeatherTracker,2013-05-02 14:58:00,
2013-05-02 10:03:00,54.1,49.1,30.11,WSW,239,2.0,14.0,83,0.00,,,0.59,WeatherTracker,2013-05-02 15:03:00,
2013-05-02 10:08:00,53.9,48.9,30.12,West,280,2.0,13.0,83,0.00,,,0.59,WeatherTracker,2013-05-02 15:08:00,
2013-05-02 10:13:00,53.6,48.6,30.13,ESE,115,2.0,9.0,83,0.00,,,0.59,WeatherTracker,2013-05-02 15:13:00,
2013-05-02 10:18:00,53.4,48.4,30.14,NNE,18,4.0,9.0,83,0.00,,,0.59,WeatherTracker,2013-05-02 15:18:00,
2013-05-02 10:23:00,53.2,48.2,30.14,North,349,2.0,12.0,83,0.00,,,0.59,WeatherTracker,2013-05-02 15:23:00,
2013-05-02 10:28:00,53.0,48.0,30.14,NW,305,2.0,12.0,83,0.00,,,0.59,WeatherTracker,2013-05-02 15:28:00,
2013-05-02 10:33:00,53.0,48.3,30.15,NW,316,2.0,12.0,84,0.00,,,0.59,WeatherTracker,2013-05-02 15:33:00,
2013-05-02 10:38:00,53.0,48.0,30.15,South,172,1.0,11.0,83,0.00,,,0.59,WeatherTracker,2013-05-02 15:38:00,
2013-05-02 10:43:00,52.8,47.5,30.16,WNW,285,2.0,11.0,82,0.00,,,0.59,WeatherTracker,2013-05-02 15:43:00,
2013-05-02 10:48:00,52.7,47.4,30.16,NW,314,2.0,11.0,82,0.00,,,0.59,WeatherTracker,2013-05-02 15:48:00,
2013-05-02 10:53:00,52.7,47.4,30.16,West,260,3.0,11.0,82,0.00,,,0.59,WeatherTracker,2013-05-02 15:53:00,
2013-05-02 10:58:00,52.4,46.7,30.16,NNW,333,1.0,11.0,81,0.00,,,0.59,WeatherTracker,2013-05-02 15:58:00,
2013-05-02 11:03:00,52.4,46.7,30.16,North,353,3.0,11.0,81,0.00,,,0.59,WeatherTracker,2013-05-02 16:03:00,
2013-05-02 11:08:00,52.3,46.3,30.17,NW,312,7.0,14.0,80,0.00,,,0.59,WeatherTracker,2013-05-02 16:08:00,
2013-05-02 11:13:00,52.2,46.5,30.17,WNW,283,5.0,14.0,81,0.00,,,0.59,WeatherTracker,2013-05-02 16:13:00,
2013-05-02 11:18:00,52.2,45.9,30.18,NNW,331,3.0,12.0,79,0.00,,,0.59,WeatherTracker,2013-05-02 16:18:00,
2013-05-02 11:23:00,51.9,45.6,30.18,ENE,66,6.0,13.0,79,0.00,,,0.59,WeatherTracker,2013-05-02 16:23:00,
2013-05-02 11:29:00,51.6,45.0,30.18,ENE,66,2.0,13.0,78,0.00,,,0.59,WeatherTracker,2013-05-02 16:29:00,
2013-05-02 11:34:00,51.5,45.2,30.18,NNE,14,3.0,17.0,79,0.00,,,0.59,WeatherTracker,2013-05-02 16:34:00,
2013-05-02 11:39:00,51.3,45.0,30.18,SE,129,2.0,17.0,79,0.00,,,0.59,WeatherTracker,2013-05-02 16:39:00,
2013-05-02 11:44:00,51.2,44.9,30.18,WSW,257,4.0,13.0,79,0.00,,,0.59,WeatherTracker,2013-05-02 16:44:00,
2013-05-02 11:49:00,51.3,45.3,30.18,NW,325,4.0,11.0,80,0.00,,,0.59,WeatherTracker,2013-05-02 16:49:00,
2013-05-02 11:54:00,51.5,45.5,30.18,West,266,1.0,11.0,80,0.00,,,0.59,WeatherTracker,2013-05-02 16:54:00,
2013-05-02 11:59:00,51.8,45.8,30.18,NNE,25,0.0,12.0,80,0.00,,,0.59,WeatherTracker,2013-05-02 16:59:00,
2013-05-02 12:04:00,52.2,45.9,30.18,NNW,338,5.0,12.0,79,0.00,,,0.59,WeatherTracker,2013-05-02 17:04:00,
2013-05-02 12:09:00,52.3,45.6,30.18,NW,314,3.0,12.0,78,0.00,,,0.59,WeatherTracker,2013-05-02 17:09:00,
2013-05-02 12:14:00,52.5,46.2,30.18,NNW,330,2.0,12.0,79,0.00,,,0.59,WeatherTracker,2013-05-02 17:14:00,
2013-05-02 12:19:00,52.6,45.9,30.18,NE,49,3.0,12.0,78,0.00,,,0.59,WeatherTracker,2013-05-02 17:19:00,
2013-05-02 12:24:00,52.7,46.0,30.18,NNE,25,6.0,12.0,78,0.00,,,0.59,WeatherTracker,2013-05-02 17:24:00,
2013-05-02 12:29:00,53.0,46.3,30.18,NNE,23,6.0,10.0,78,0.00,,,0.59,WeatherTracker,2013-05-02 17:29:00,
2013-05-02 12:34:00,53.7,47.0,30.18,ENE,62,1.0,11.0,78,0.00,,,0.59,WeatherTracker,2013-05-02 17:34:00,
2013-05-02 12:39:00,54.1,46.7,30.18,NW,307,0.0,11.0,76,0.00,,,0.59,WeatherTracker,2013-05-02 17:39:00,
2013-05-02 12:44:00,54.8,47.4,30.18,NW,326,5.0,10.0,76,0.00,,,0.59,WeatherTracker,2013-05-02 17:44:00,
2013-05-02 12:49:00,55.5,47.7,30.19,NW,315,1.0,8.0,75,0.00,,,0.59,WeatherTracker,2013-05-02 17:49:00,
2013-05-02 12:54:00,56.0,47.8,30.19,NW,321,2.0,8.0,74,0.00,,,0.59,WeatherTracker,2013-05-02 17:54:00,
2013-05-02 12:59:00,56.2,48.0,30.19,ENE,76,1.0,6.0,74,0.00,,,0.59,WeatherTracker,2013-05-02 17:59:00,
2013-05-02 13:04:00,56.1,47.6,30.19,NNE,32,0.0,9.0,73,0.00,,,0.59,WeatherTracker,2013-05-02 18:04:00,
2013-05-02 13:10:00,56.0,47.8,30.19,WNW,302,1.0,9.0,74,0.00,,,0.59,WeatherTracker,2013-05-02 18:10:00,
2013-05-02 13:15:00,56.0,48.2,30.19,NW,305,0.0,8.0,75,0.00,,,0.59,WeatherTracker,2013-05-02 18:15:00,
2013-05-02 13:20:00,56.1,48.3,30.19,WNW,285,2.0,9.0,75,0.00,,,0.59,WeatherTracker,2013-05-02 18:20:00,
2013-05-02 13:25:00,56.2,48.0,30.19,NNE,16,2.0,9.0,74,0.00,,,0.59,WeatherTracker,2013-05-02 18:25:00,
2013-05-02 13:30:00,56.1,47.9,30.19,NNE,27,2.0,10.0,74,0.00,,,0.59,WeatherTracker,2013-05-02 18:30:00,
2013-05-02 13:35:00,56.2,48.0,30.19,North,352,1.0,10.0,74,0.00,,,0.59,WeatherTracker,2013-05-02 18:35:00,
2013-05-02 13:40:00,56.4,48.2,30.19,NW,321,3.0,14.0,74,0.00,,,0.59,WeatherTracker,2013-05-02 18:40:00,
2013-05-02 13:45:00,56.7,48.1,30.19,East,86,3.0,14.0,73,0.00,,,0.59,WeatherTracker,2013-05-02 18:45:00,
2013-05-02 13:50:00,56.9,48.0,30.19,NNW,338,4.0,10.0,72,0.00,,,0.59,WeatherTracker,2013-05-02 18:50:00,
2013-05-02 13:55:00,57.5,48.5,30.19,WNW,290,2.0,10.0,72,0.00,,,0.59,WeatherTracker,2013-05-02 18:55:00,
2013-05-02 14:00:00,58.0,48.6,30.19,North,10,2.0,9.0,71,0.00,,,0.59,WeatherTracker,2013-05-02 19:00:00,
2013-05-02 14:05:00,58.5,49.1,30.19,East,97,2.0,9.0,71,0.00,,,0.59,WeatherTracker,2013-05-02 19:05:00,
2013-05-02 14:10:00,58.5,48.7,30.19,NNE,32,3.0,12.0,70,0.00,,,0.59,WeatherTracker,2013-05-02 19:10:00,
2013-05-02 14:15:00,58.8,48.7,30.19,NNW,345,2.0,12.0,69,0.00,,,0.59,WeatherTracker,2013-05-02 19:15:00,
2013-05-02 14:20:00,59.4,48.8,30.18,North,353,3.0,11.0,68,0.00,,,0.59,WeatherTracker,2013-05-02 19:20:00,
2013-05-02 14:25:00,60.1,49.9,30.18,West,260,3.0,10.0,69,0.00,,,0.59,WeatherTracker,2013-05-02 19:25:00,
2013-05-02 14:30:00,60.4,50.6,30.18,NNE,27,5.0,10.0,70,0.00,,,0.59,WeatherTracker,2013-05-02 19:30:00,
2013-05-02 14:35:00,60.6,49.2,30.18,North,3,4.0,10.0,66,0.00,,,0.59,WeatherTracker,2013-05-02 19:35:00,
2013-05-02 14:40:00,60.2,48.8,30.18,NNW,345,1.0,13.0,66,0.00,,,0.59,WeatherTracker,2013-05-02 19:40:00,
2013-05-02 14:45:00,59.5,48.5,30.18,West,262,4.0,16.0,67,0.00,,,0.59,WeatherTracker,2013-05-02 19:45:00,
2013-05-02 14:50:00,59.0,48.1,30.18,NNW,345,8.0,16.0,67,0.00,,,0.59,WeatherTracker,2013-05-02 19:50:00,
2013-05-02 14:55:00,59.1,48.2,30.18,East,85,1.0,13.0,67,0.00,,,0.59,WeatherTracker,2013-05-02 19:55:00,
2013-05-02 15:00:00,59.0,48.1,30.18,NE,41,2.0,15.0,67,0.00,,,0.59,WeatherTracker,2013-05-02 20:00:00,
2013-05-02 15:05:00,59.7,49.1,30.18,ENE,63,0.0,15.0,68,0.00,,,0.59,WeatherTracker,2013-05-02 20:05:00,
2013-05-02 15:11:00,60.1,47.9,30.18,WNW,295,2.0,11.0,64,0.00,,,0.59,WeatherTracker,2013-05-02 20:11:00,
2013-05-02 15:16:00,59.2,47.8,30.18,WNW,287,2.0,15.0,66,0.00,,,0.59,WeatherTracker,2013-05-02 20:16:00,
2013-05-02 15:21:00,58.6,47.3,30.18,ENE,76,2.0,16.0,66,0.00,,,0.59,WeatherTracker,2013-05-02 20:21:00,
2013-05-02 15:26:00,59.2,47.8,30.18,ESE,102,4.0,16.0,66,0.00,,,0.59,WeatherTracker,2013-05-02 20:26:00,
2013-05-02 15:31:00,59.0,47.7,30.18,NW,311,4.0,12.0,66,0.00,,,0.59,WeatherTracker,2013-05-02 20:31:00,
2013-05-02 15:36:00,59.1,47.8,30.18,East,80,4.0,15.0,66,0.00,,,0.59,WeatherTracker,2013-05-02 20:36:00,
2013-05-02 15:41:00,59.4,47.6,30.18,ESE,113,3.0,15.0,65,0.00,,,0.59,WeatherTracker,2013-05-02 20:41:00,
2013-05-02 15:46:00,58.9,47.2,30.19,North,11,3.0,15.0,65,0.00,,,0.59,WeatherTracker,2013-05-02 20:46:00,
2013-05-02 15:51:00,58.6,46.5,30.18,NW,309,3.0,15.0,64,0.00,,,0.59,WeatherTracker,2013-05-02 20:51:00,
2013-05-02 15:56:00,58.5,47.6,30.18,ENE,78,1.0,13.0,67,0.00,,,0.59,WeatherTracker,2013-05-02 20:56:00,
2013-05-02 16:01:00,58.9,47.2,30.18,NW,309,1.0,12.0,65,0.00,,,0.59,WeatherTracker,2013-05-02 21:01:00,
2013-05-02 16:06:00,58.5,46.4,30.19,SSE,168,9.0,12.0,64,0.00,,,0.59,WeatherTracker,2013-05-02 21:06:00,
2013-05-02 16:11:00,58.3,46.6,30.18,ESE,105,2.0,12.0,65,0.00,,,0.59,WeatherTracker,2013-05-02 21:11:00,
2013-05-02 16:16:00,58.2,46.5,30.18,NNW,341,3.0,12.0,65,0.00,,,0.59,WeatherTracker,2013-05-02 21:16:00,
2013-05-02 16:21:00,58.6,47.7,30.18,WNW,285,1.0,12.0,67,0.00,,,0.59,WeatherTracker,2013-05-02 21:21:00,
2013-05-02 16:26:00,58.8,47.1,30.19,NE,52,2.0,12.0,65,0.00,,,0.59,WeatherTracker,2013-05-02 21:26:00,
2013-05-02 16:31:00,58.4,46.3,30.19,NNE,15,3.0,10.0,64,0.00,,,0.59,WeatherTracker,2013-05-02 21:31:00,
2013-05-02 16:36:00,58.0,46.7,30.18,NNE,23,7.0,12.0,66,0.00,,,0.59,WeatherTracker,2013-05-02 21:36:00,
2013-05-02 16:41:00,58.0,46.3,30.19,WSW,246,2.0,12.0,65,0.00,,,0.59,WeatherTracker,2013-05-02 21:41:00,
2013-05-02 16:46:00,57.8,45.7,30.18,ENE,65,5.0,13.0,64,0.00,,,0.59,WeatherTracker,2013-05-02 21:46:00,
2013-05-02 16:51:00,57.8,46.1,30.19,East,79,2.0,13.0,65,0.00,,,0.59,WeatherTracker,2013-05-02 21:51:00,
2013-05-02 16:57:00,57.5,45.4,30.18,NW,318,6.0,16.0,64,0.00,,,0.59,WeatherTracker,2013-05-02 21:57:00,
2013-05-02 17:02:00,57.0,45.8,30.19,NNE,25,6.0,16.0,66,0.00,,,0.59,WeatherTracker,2013-05-02 22:02:00,
2013-05-02 17:07:00,56.9,45.3,30.19,NNW,333,9.0,15.0,65,0.00,,,0.59,WeatherTracker,2013-05-02 22:07:00,
2013-05-02 17:12:00,56.5,45.3,30.19,NW,318,5.0,13.0,66,0.00,,,0.59,WeatherTracker,2013-05-02 22:12:00,
2013-05-02 17:17:00,56.1,45.3,30.19,NE,39,2.0,13.0,67,0.00,,,0.59,WeatherTracker,2013-05-02 22:17:00,
2013-05-02 17:22:00,56.2,45.4,30.19,NW,307,5.0,12.0,67,0.00,,,0.59,WeatherTracker,2013-05-02 22:22:00,
2013-05-02 17:27:00,55.7,44.9,30.19,North,9,1.0,17.0,67,0.00,,,0.59,WeatherTracker,2013-05-02 22:27:00,
2013-05-02 17:32:00,55.1,44.3,30.19,WNW,288,2.0,17.0,67,0.00,,,0.59,WeatherTracker,2013-05-02 22:32:00,
2013-05-02 17:37:00,54.6,44.3,30.19,WNW,290,2.0,13.0,68,0.00,,,0.59,WeatherTracker,2013-05-02 22:37:00,
2013-05-02 17:42:00,54.1,43.8,30.19,WNW,285,2.0,11.0,68,0.00,,,0.59,WeatherTracker,2013-05-02 22:42:00,
2013-05-02 17:47:00,54.0,44.1,30.19,NE,34,1.0,9.0,69,0.00,,,0.59,WeatherTracker,2013-05-02 22:47:00,
2013-05-02 17:52:00,54.1,44.2,30.19,NW,316,8.0,9.0,69,0.00,,,0.59,WeatherTracker,2013-05-02 22:52:00,
2013-05-02 17:57:00,53.8,43.5,30.20,NE,55,3.0,9.0,68,0.00,,,0.59,WeatherTracker,2013-05-02 22:57:00,
2013-05-02 18:02:00,53.4,43.5,30.20,North,8,4.0,10.0,69,0.00,,,0.59,WeatherTracker,2013-05-02 23:02:00,
2013-05-02 18:07:00,52.8,42.9,30.21,NW,307,1.0,10.0,69,0.00,,,0.59,WeatherTracker,2013-05-02 23:07:00,
2013-05-02 18:12:00,52.3,43.2,30.21,West,280,1.0,14.0,71,0.00,,,0.59,WeatherTracker,2013-05-02 23:12:00,
2013-05-02 18:17:00,52.0,42.9,30.21,West,266,0.0,14.0,71,0.00,,,0.59,WeatherTracker,2013-05-02 23:17:00,
2013-05-02 18:23:00,51.7,42.6,30.21,North,10,4.0,17.0,71,0.00,,,0.59,WeatherTracker,2013-05-02 23:23:00,
2013-05-02 18:28:00,51.4,42.7,30.21,NNW,335,1.0,17.0,72,0.00,,,0.59,WeatherTracker,2013-05-02 23:28:00,
2013-05-02 18:33:00,51.4,42.7,30.21,WNW,289,1.0,9.0,72,0.00,,,0.59,WeatherTracker,2013-05-02 23:33:00,
2013-05-02 18:38:00,51.5,42.4,30.21,ENE,75,3.0,10.0,71,0.00,,,0.59,WeatherTracker,2013-05-02 23:38:00,
2013-05-02 18:43:00,51.4,41.9,30.22,WNW,288,2.0,11.0,70,0.00,,,0.59,WeatherTracker,2013-05-02 23:43:00,
2013-05-02 18:48:00,51.4,41.9,30.22,NW,314,1.0,11.0,70,0.00,,,0.59,WeatherTracker,2013-05-02 23:48:00,
2013-05-02 18:53:00,51.4,42.3,30.22,NW,318,1.0,9.0,71,0.00,,,0.59,WeatherTracker,2013-05-02 23:53:00,
2013-05-02 18:58:00,51.4,42.3,30.22,NW,309,1.0,9.0,71,0.00,,,0.59,WeatherTracker,2013-05-02 23:58:00,
2013-05-02 19:03:00,51.4,41.9,30.23,NW,321,2.0,9.0,70,0.00,,,0.59,WeatherTracker,2013-05-03 00:03:00,
2013-05-02 19:08:00,51.3,41.9,30.23,NE,35,0.0,7.0,70,0.00,,,0.59,WeatherTracker,2013-05-03 00:08:00,
2013-05-02 19:13:00,51.1,41.7,30.23,NNE,22,1.0,8.0,70,0.00,,,0.59,WeatherTracker,2013-05-03 00:13:00,
2013-05-02 19:18:00,51.0,41.6,30.23,North,353,2.0,11.0,70,0.00,,,0.59,WeatherTracker,2013-05-03 00:18:00,
2013-05-02 19:23:00,50.7,41.3,30.23,NNE,22,4.0,11.0,70,0.00,,,0.59,WeatherTracker,2013-05-03 00:23:00,
2013-05-02 19:28:00,50.6,41.5,30.23,NNE,12,3.0,10.0,71,0.00,,,0.59,WeatherTracker,2013-05-03 00:28:00,
2013-05-02 19:33:00,50.5,41.5,30.24,North,352,4.0,9.0,71,0.00,,,0.59,WeatherTracker,2013-05-03 00:33:00,
2013-05-02 19:38:00,50.5,41.1,30.24,WNW,297,0.0,9.0,70,0.00,,,0.59,WeatherTracker,2013-05-03 00:38:00,
2013-05-02 19:43:00,50.4,41.0,30.24,NNW,330,1.0,9.0,70,0.00,,,0.59,WeatherTracker,2013-05-03 00:43:00,
2013-05-02 19:49:00,50.4,41.4,30.24,NW,321,9.0,9.0,71,0.00,,,0.59,WeatherTracker,2013-05-03 00:49:00,
2013-05-02 19:54:00,50.4,41.4,30.24,WNW,299,1.0,9.0,71,0.00,,,0.59,WeatherTracker,2013-05-03 00:54:00,
2013-05-02 19:59:00,50.4,41.0,30.25,North,11,0.0,9.0,70,0.00,,,0.59,WeatherTracker,2013-05-03 00:59:00,
2013-05-02 20:04:00,50.3,40.9,30.25,SE,143,2.0,8.0,70,0.00,,,0.59,WeatherTracker,2013-05-03 01:04:00,
2013-05-02 20:09:00,50.3,41.3,30.25,WNW,290,0.0,8.0,71,0.00,,,0.59,WeatherTracker,2013-05-03 01:09:00,
2013-05-02 20:14:00,50.2,40.8,30.25,ENE,62,3.0,9.0,70,0.00,,,0.59,WeatherTracker,2013-05-03 01:14:00,
2013-05-02 20:19:00,50.1,40.3,30.25,ENE,65,2.0,12.0,69,0.00,,,0.59,WeatherTracker,2013-05-03 01:19:00,
2013-05-02 20:24:00,49.9,40.1,30.26,NNE,27,2.0,12.0,69,0.00,,,0.59,WeatherTracker,2013-05-03 01:24:00,
2013-05-02 20:29:00,49.8,40.0,30.26,ENE,62,4.0,11.0,69,0.00,,,0.59,WeatherTracker,2013-05-03 01:29:00,
2013-05-02 20:34:00,49.7,39.9,30.26,NW,307,3.0,11.0,69,0.00,,,0.59,WeatherTracker,2013-05-03 01:34:00,
2013-05-02 20:39:00,49.7,39.9,30.26,ENE,73,1.0,9.0,69,0.00,,,0.59,WeatherTracker,2013-05-03 01:39:00,
2013-05-02 20:44:00,49.7,39.6,30.27,North,349,6.0,11.0,68,0.00,,,0.59,WeatherTracker,2013-05-03 01:44:00,
2013-05-02 20:49:00,49.6,39.1,30.27,NE,47,7.0,11.0,67,0.00,,,0.59,WeatherTracker,2013-05-03 01:49:00,
2013-05-02 20:54:00,49.6,39.1,30.27,NW,319,7.0,15.0,67,0.00,,,0.59,WeatherTracker,2013-05-03 01:54:00,
2013-05-02 20:59:00,49.5,39.0,30.27,NW,318,3.0,15.0,67,0.00,,,0.59,WeatherTracker,2013-05-03 01:59:00,
2013-05-02 21:04:00,49.5,39.0,30.27,North,355,4.0,13.0,67,0.00,,,0.59,WeatherTracker,2013-05-03 02:04:00,
2013-05-02 21:09:00,49.5,39.0,30.27,South,179,2.0,11.0,67,0.00,,,0.59,WeatherTracker,2013-05-03 02:09:00,
2013-05-02 21:14:00,49.5,39.0,30.27,NNW,328,4.0,11.0,67,0.00,,,0.59,WeatherTracker,2013-05-03 02:14:00,
2013-05-02 21:19:00,49.5,39.0,30.27,ENE,63,4.0,9.0,67,0.00,,,0.59,WeatherTracker,2013-05-03 02:19:00,
2013-05-02 21:24:00,49.5,39.0,30.27,NW,309,4.0,10.0,67,0.00,,,0.59,WeatherTracker,2013-05-03 02:24:00,
2013-05-02 21:30:00,49.5,39.0,30.27,SW,236,3.0,10.0,67,0.00,,,0.59,WeatherTracker,2013-05-03 02:30:00,
2013-05-02 21:35:00,49.5,39.0,30.27,North,11,7.0,10.0,67,0.00,,,0.59,WeatherTracker,2013-05-03 02:35:00,
2013-05-02 21:40:00,49.5,39.0,30.28,ENE,59,1.0,13.0,67,0.00,,,0.59,WeatherTracker,2013-05-03 02:40:00,
2013-05-02 21:45:00,49.5,39.0,30.28,NNE,12,1.0,13.0,67,0.00,,,0.59,WeatherTracker,2013-05-03 02:45:00,
2013-05-02 21:50:00,49.5,39.4,30.28,NNE,29,1.0,10.0,68,0.00,,,0.59,WeatherTracker,2013-05-03 02:50:00,
2013-05-02 21:55:00,49.6,39.1,30.29,NW,321,3.0,8.0,67,0.00,,,0.59,WeatherTracker,2013-05-03 02:55:00,
2013-05-02 22:00:00,49.6,39.1,30.29,SE,126,5.0,8.0,67,0.00,,,0.59,WeatherTracker,2013-05-03 03:00:00,
2013-05-02 22:05:00,49.6,39.5,30.29,ENE,77,3.0,12.0,68,0.00,,,0.59,WeatherTracker,2013-05-03 03:05:00,
2013-05-02 22:10:00,49.7,39.2,30.29,WNW,285,0.0,12.0,67,0.00,,,0.59,WeatherTracker,2013-05-03 03:10:00,
2013-05-02 22:15:00,49.7,39.6,30.30,East,96,2.0,12.0,68,0.00,,,0.59,WeatherTracker,2013-05-03 03:15:00,
2013-05-02 22:20:00,49.8,39.3,30.31,ENE,71,2.0,10.0,67,0.00,,,0.59,WeatherTracker,2013-05-03 03:20:00,
2013-05-02 22:25:00,49.9,39.4,30.31,NNE,20,1.0,10.0,67,0.00,,,0.59,WeatherTracker,2013-05-03 03:25:00,
2013-05-02 22:30:00,49.9,39.8,30.31,WNW,287,1.0,9.0,68,0.00,,,0.59,WeatherTracker,2013-05-03 03:30:00,
2013-05-02 22:35:00,49.9,39.8,30.31,North,349,0.0,7.0,68,0.00,,,0.59,WeatherTracker,2013-05-03 03:35:00,
2013-05-02 22:40:00,50.0,39.5,30.32,WNW,290,1.0,7.0,67,0.00,,,0.59,WeatherTracker,2013-05-03 03:40:00,
2013-05-02 22:45:00,50.1,39.6,30.32,NW,307,4.0,10.0,67,0.00,,,0.59,WeatherTracker,2013-05-03 03:45:00,
2013-05-02 22:50:00,50.1,39.2,30.32,NNW,335,1.0,10.0,66,0.00,,,0.59,WeatherTracker,2013-05-03 03:50:00,
2013-05-02 22:55:00,50.2,39.7,30.33,NNE,20,2.0,9.0,67,0.00,,,0.59,WeatherTracker,2013-05-03 03:55:00,
2013-05-02 23:01:00,50.2,39.3,30.33,WSW,253,2.0,9.0,66,0.00,,,0.59,WeatherTracker,2013-05-03 04:01:00,
2013-05-02 23:02:00,50.2,38.9,30.33,North,10,1.0,9.0,65,0.00,,,0.59,WeatherTracker,2013-05-03 04:02:00,
2013-05-02 23:03:00,50.3,39.4,30.32,NNW,347,1.0,9.0,66,0.00,,,0.59,WeatherTracker,2013-05-03 04:03:00,
2013-05-02 23:08:00,50.3,39.0,30.32,NNE,29,1.0,10.0,65,0.00,,,0.59,WeatherTracker,2013-05-03 04:08:00,
2013-05-02 23:13:00,50.3,39.0,30.33,NW,309,5.0,10.0,65,0.00,,,0.59,WeatherTracker,2013-05-03 04:13:00,
2013-05-02 23:18:00,50.3,38.6,30.33,NE,51,4.0,10.0,64,0.00,,,0.59,WeatherTracker,2013-05-03 04:18:00,
2013-05-02 23:23:00,50.3,38.6,30.33,ENE,70,2.0,8.0,64,0.00,,,0.59,WeatherTracker,2013-05-03 04:23:00,
2013-05-02 23:28:00,50.3,38.6,30.33,NNE,13,3.0,8.0,64,0.00,,,0.59,WeatherTracker,2013-05-03 04:28:00,
2013-05-02 23:33:00,50.3,38.2,30.33,West,264,3.0,8.0,63,0.00,,,0.59,WeatherTracker,2013-05-03 04:33:00,
2013-05-02 23:38:00,50.3,37.8,30.33,NNW,331,4.0,8.0,62,0.00,,,0.59,WeatherTracker,2013-05-03 04:38:00,
2013-05-02 23:44:00,50.3,37.8,30.33,North,354,0.0,8.0,62,0.00,,,0.59,WeatherTracker,2013-05-03 04:44:00,
2013-05-02 23:49:00,50.3,38.2,30.32,West,274,4.0,8.0,63,0.00,,,0.59,WeatherTracker,2013-05-03 04:49:00,
2013-05-02 23:54:00,50.3,37.4,30.33,WSW,249,2.0,12.0,61,0.00,,,0.59,WeatherTracker,2013-05-03 04:54:00,
2013-05-02 23:59:00,50.3,37.8,30.33,NW,304,1.0,13.0,62,0.00,,,0.59,WeatherTracker,2013-05-03 04:59:00,